sensor_id;sensor_type;location;lat;lon;timestamp;temperature;humidity
37868;DHT22;24011;48.880;9.190;2022-12-29T00:01:07;24.10;36.10
37868;DHT22;24011;48.880;9.190;2022-12-29T00:04:43;24.10;36.20
37868;DHT22;24011;48.880;9.190;2022-12-29T00:08:19;24.10;36.20
37868;DHT22;24011;48.880;9.190;2022-12-29T00:11:43;24.10;36.20
37868;DHT22;24011;48.880;9.190;2022-12-29T00:15:20;24.10;36.20
37868;DHT22;24011;48.880;9.190;2022-12-29T00:18:50;24.10;36.20
37868;DHT22;24011;48.880;9.190;2022-12-29T00:22:26;24.10;36.20
37868;DHT22;24011;48.880;9.190;2022-12-29T00:26:02;24.10;36.20
37868;DHT22;24011;48.880;9.190;2022-12-29T00:29:37;24.10;36.20
37868;DHT22;24011;48.880;9.190;2022-12-29T00:33:08;24.10;36.20
37868;DHT22;24011;48.880;9.190;2022-12-29T00:36:41;24.10;36.20
37868;DHT22;24011;48.880;9.190;2022-12-29T00:40:13;24.00;36.20
37868;DHT22;24011;48.880;9.190;2022-12-29T00:43:38;24.10;36.20
37868;DHT22;24011;48.880;9.190;2022-12-29T00:47:07;24.10;36.20
37868;DHT22;24011;48.880;9.190;2022-12-29T00:50:26;24.00;36.20
37868;DHT22;24011;48.880;9.190;2022-12-29T00:53:56;24.10;36.20
37868;DHT22;24011;48.880;9.190;2022-12-29T00:57:32;24.10;36.20
37868;DHT22;24011;48.880;9.190;2022-12-29T01:00:50;24.10;36.20
37868;DHT22;24011;48.880;9.190;2022-12-29T01:04:20;24.10;36.20
37868;DHT22;24011;48.880;9.190;2022-12-29T01:07:37;24.00;36.20
37868;DHT22;24011;48.880;9.190;2022-12-29T01:11:03;24.10;36.20
37868;DHT22;24011;48.880;9.190;2022-12-29T01:14:37;24.10;36.20
37868;DHT22;24011;48.880;9.190;2022-12-29T01:17:55;24.10;36.20
37868;DHT22;24011;48.880;9.190;2022-12-29T01:21:31;24.10;36.20
37868;DHT22;24011;48.880;9.190;2022-12-29T01:25:02;24.10;36.20
37868;DHT22;24011;48.880;9.190;2022-12-29T01:28:20;24.10;36.20
37868;DHT22;24011;48.880;9.190;2022-12-29T01:31:56;24.10;36.20
37868;DHT22;24011;48.880;9.190;2022-12-29T01:35:15;24.10;36.20
37868;DHT22;24011;48.880;9.190;2022-12-29T01:38:26;24.10;36.20
37868;DHT22;24011;48.880;9.190;2022-12-29T01:41:44;24.00;36.20
37868;DHT22;24011;48.880;9.190;2022-12-29T01:45:08;24.10;36.20
37868;DHT22;24011;48.880;9.190;2022-12-29T01:48:33;24.10;36.20
37868;DHT22;24011;48.880;9.190;2022-12-29T01:52:20;24.10;36.20
37868;DHT22;24011;48.880;9.190;2022-12-29T01:56:26;24.10;36.30
37868;DHT22;24011;48.880;9.190;2022-12-29T02:00:56;24.10;36.20
37868;DHT22;24011;48.880;9.190;2022-12-29T02:12:20;24.10;36.20
37868;DHT22;24011;48.880;9.190;2022-12-29T02:15:56;24.10;36.10
37868;DHT22;24011;48.880;9.190;2022-12-29T02:23:22;24.10;36.20
37868;DHT22;24011;48.880;9.190;2022-12-29T02:31:06;24.10;36.20
37868;DHT22;24011;48.880;9.190;2022-12-29T02:34:32;24.10;36.20
37868;DHT22;24011;48.880;9.190;2022-12-29T02:38:08;24.10;36.20
37868;DHT22;24011;48.880;9.190;2022-12-29T02:41:31;24.10;36.20
37868;DHT22;24011;48.880;9.190;2022-12-29T02:45:02;24.10;36.20
37868;DHT22;24011;48.880;9.190;2022-12-29T02:48:37;24.10;36.20
37868;DHT22;24011;48.880;9.190;2022-12-29T02:52:07;24.10;36.20
37868;DHT22;24011;48.880;9.190;2022-12-29T02:55:25;24.10;36.20
37868;DHT22;24011;48.880;9.190;2022-12-29T02:58:25;24.10;36.20
37868;DHT22;24011;48.880;9.190;2022-12-29T03:01:36;24.10;36.20
37868;DHT22;24011;48.880;9.190;2022-12-29T03:05:27;24.10;36.20
37868;DHT22;24011;48.880;9.190;2022-12-29T03:08:34;24.10;36.20
37868;DHT22;24011;48.880;9.190;2022-12-29T03:11:40;24.10;36.20
37868;DHT22;24011;48.880;9.190;2022-12-29T03:15:00;24.10;36.20
37868;DHT22;24011;48.880;9.190;2022-12-29T03:18:15;24.10;36.20
37868;DHT22;24011;48.880;9.190;2022-12-29T03:21:27;24.10;36.20
37868;DHT22;24011;48.880;9.190;2022-12-29T03:24:45;24.10;36.20
37868;DHT22;24011;48.880;9.190;2022-12-29T03:28:01;24.10;36.20
37868;DHT22;24011;48.880;9.190;2022-12-29T03:31:29;24.10;36.20
37868;DHT22;24011;48.880;9.190;2022-12-29T03:34:49;24.10;36.20
37868;DHT22;24011;48.880;9.190;2022-12-29T03:38:25;24.10;36.30
37868;DHT22;24011;48.880;9.190;2022-12-29T03:41:47;24.10;36.20
37868;DHT22;24011;48.880;9.190;2022-12-29T03:45:11;24.10;36.20
37868;DHT22;24011;48.880;9.190;2022-12-29T03:48:41;24.10;36.20
37868;DHT22;24011;48.880;9.190;2022-12-29T03:52:01;24.10;36.20
37868;DHT22;24011;48.880;9.190;2022-12-29T03:55:25;24.10;36.20
37868;DHT22;24011;48.880;9.190;2022-12-29T03:58:49;24.00;36.20
37868;DHT22;24011;48.880;9.190;2022-12-29T04:02:13;24.00;36.20
37868;DHT22;24011;48.880;9.190;2022-12-29T04:05:49;24.00;36.10
37868;DHT22;24011;48.880;9.190;2022-12-29T04:09:17;24.00;35.80
37868;DHT22;24011;48.880;9.190;2022-12-29T04:12:43;24.00;35.60
37868;DHT22;24011;48.880;9.190;2022-12-29T04:16:01;24.00;35.50
37868;DHT22;24011;48.880;9.190;2022-12-29T04:19:25;24.00;35.40
37868;DHT22;24011;48.880;9.190;2022-12-29T04:23:06;24.00;35.20
37868;DHT22;24011;48.880;9.190;2022-12-29T04:26:29;24.00;35.10
37868;DHT22;24011;48.880;9.190;2022-12-29T04:30:05;24.00;35.00
37868;DHT22;24011;48.880;9.190;2022-12-29T04:33:32;24.00;34.80
37868;DHT22;24011;48.880;9.190;2022-12-29T04:36:59;24.00;34.80
37868;DHT22;24011;48.880;9.190;2022-12-29T04:40:26;24.00;34.60
37868;DHT22;24011;48.880;9.190;2022-12-29T04:44:02;24.00;34.50
37868;DHT22;24011;48.880;9.190;2022-12-29T04:47:26;24.00;34.40
37868;DHT22;24011;48.880;9.190;2022-12-29T04:50:50;24.00;34.30
37868;DHT22;24011;48.880;9.190;2022-12-29T04:54:14;24.00;34.20
37868;DHT22;24011;48.880;9.190;2022-12-29T04:57:44;24.00;34.10
37868;DHT22;24011;48.880;9.190;2022-12-29T05:01:01;24.00;34.10
37868;DHT22;24011;48.880;9.190;2022-12-29T05:04:14;24.00;34.10
37868;DHT22;24011;48.880;9.190;2022-12-29T05:07:24;24.00;33.90
37868;DHT22;24011;48.880;9.190;2022-12-29T05:10:25;24.00;33.90
37868;DHT22;24011;48.880;9.190;2022-12-29T05:13:26;24.00;33.90
37868;DHT22;24011;48.880;9.190;2022-12-29T05:16:37;24.00;33.80
37868;DHT22;24011;48.880;9.190;2022-12-29T05:19:44;24.00;33.80
37868;DHT22;24011;48.880;9.190;2022-12-29T05:22:49;24.00;33.70
37868;DHT22;24011;48.880;9.190;2022-12-29T05:25:48;24.00;33.70
37868;DHT22;24011;48.880;9.190;2022-12-29T05:28:49;24.00;33.60
37868;DHT22;24011;48.880;9.190;2022-12-29T05:31:55;24.00;33.60
37868;DHT22;24011;48.880;9.190;2022-12-29T05:35:07;24.00;33.60
37868;DHT22;24011;48.880;9.190;2022-12-29T05:38:12;23.90;33.60
37868;DHT22;24011;48.880;9.190;2022-12-29T05:41:13;23.90;33.30
37868;DHT22;24011;48.880;9.190;2022-12-29T05:44:20;23.90;33.50
37868;DHT22;24011;48.880;9.190;2022-12-29T05:47:25;24.00;33.40
37868;DHT22;24011;48.880;9.190;2022-12-29T05:50:37;24.00;33.40
37868;DHT22;24011;48.880;9.190;2022-12-29T05:53:43;24.00;33.30
37868;DHT22;24011;48.880;9.190;2022-12-29T05:56:55;24.00;33.40
37868;DHT22;24011;48.880;9.190;2022-12-29T05:59:56;24.00;33.30
37868;DHT22;24011;48.880;9.190;2022-12-29T06:03:00;23.90;33.30
37868;DHT22;24011;48.880;9.190;2022-12-29T06:05:54;23.90;33.20
37868;DHT22;24011;48.880;9.190;2022-12-29T06:08:54;24.00;33.20
37868;DHT22;24011;48.880;9.190;2022-12-29T06:12:02;23.90;33.00
37868;DHT22;24011;48.880;9.190;2022-12-29T06:15:26;24.00;33.10
37868;DHT22;24011;48.880;9.190;2022-12-29T06:18:53;24.00;33.10
37868;DHT22;24011;48.880;9.190;2022-12-29T06:22:20;24.00;33.00
37868;DHT22;24011;48.880;9.190;2022-12-29T06:25:50;23.90;32.90
37868;DHT22;24011;48.880;9.190;2022-12-29T06:29:08;24.00;33.00
37868;DHT22;24011;48.880;9.190;2022-12-29T06:32:38;23.90;32.90
37868;DHT22;24011;48.880;9.190;2022-12-29T06:35:49;24.00;32.90
37868;DHT22;24011;48.880;9.190;2022-12-29T06:39:01;23.90;32.90
37868;DHT22;24011;48.880;9.190;2022-12-29T06:42:07;24.00;32.90
37868;DHT22;24011;48.880;9.190;2022-12-29T06:45:20;23.90;32.90
37868;DHT22;24011;48.880;9.190;2022-12-29T06:48:25;24.00;32.80
37868;DHT22;24011;48.880;9.190;2022-12-29T06:51:14;24.00;32.90
37868;DHT22;24011;48.880;9.190;2022-12-29T06:54:32;23.90;32.70
37868;DHT22;24011;48.880;9.190;2022-12-29T06:57:53;24.00;32.70
37868;DHT22;24011;48.880;9.190;2022-12-29T07:00:36;23.90;32.70
37868;DHT22;24011;48.880;9.190;2022-12-29T07:03:38;23.90;32.80
37868;DHT22;24011;48.880;9.190;2022-12-29T07:06:36;23.90;32.70
37868;DHT22;24011;48.880;9.190;2022-12-29T07:10:14;23.90;32.60
37868;DHT22;24011;48.880;9.190;2022-12-29T07:13:36;23.90;32.60
37868;DHT22;24011;48.880;9.190;2022-12-29T07:16:55;23.90;32.60
37868;DHT22;24011;48.880;9.190;2022-12-29T07:19:58;24.00;32.60
37868;DHT22;24011;48.880;9.190;2022-12-29T07:23:20;23.90;32.70
37868;DHT22;24011;48.880;9.190;2022-12-29T07:26:38;24.00;32.50
37868;DHT22;24011;48.880;9.190;2022-12-29T07:29:56;24.00;32.50
37868;DHT22;24011;48.880;9.190;2022-12-29T07:32:55;24.00;32.40
37868;DHT22;24011;48.880;9.190;2022-12-29T07:36:07;24.00;32.40
37868;DHT22;24011;48.880;9.190;2022-12-29T07:39:07;24.00;32.40
37868;DHT22;24011;48.880;9.190;2022-12-29T07:42:21;24.00;32.40
37868;DHT22;24011;48.880;9.190;2022-12-29T07:45:32;24.00;32.30
37868;DHT22;24011;48.880;9.190;2022-12-29T07:49:20;24.00;32.30
37868;DHT22;24011;48.880;9.190;2022-12-29T07:52:31;24.00;32.30
37868;DHT22;24011;48.880;9.190;2022-12-29T07:55:37;24.00;32.20
37868;DHT22;24011;48.880;9.190;2022-12-29T07:58:41;24.00;32.30
37868;DHT22;24011;48.880;9.190;2022-12-29T08:01:43;24.00;32.10
37868;DHT22;24011;48.880;9.190;2022-12-29T08:04:46;24.00;32.10
37868;DHT22;24011;48.880;9.190;2022-12-29T08:07:51;24.00;32.20
37868;DHT22;24011;48.880;9.190;2022-12-29T08:10:55;24.00;32.00
37868;DHT22;24011;48.880;9.190;2022-12-29T08:14:06;24.00;32.00
37868;DHT22;24011;48.880;9.190;2022-12-29T08:16:57;24.00;32.00
37868;DHT22;24011;48.880;9.190;2022-12-29T08:19:51;24.00;31.90
37868;DHT22;24011;48.880;9.190;2022-12-29T08:22:56;24.00;32.00
37868;DHT22;24011;48.880;9.190;2022-12-29T08:26:02;24.00;32.00
37868;DHT22;24011;48.880;9.190;2022-12-29T08:29:07;24.00;31.90
37868;DHT22;24011;48.880;9.190;2022-12-29T08:32:01;24.00;31.90
37868;DHT22;24011;48.880;9.190;2022-12-29T08:34:57;24.00;31.90
37868;DHT22;24011;48.880;9.190;2022-12-29T08:37:51;24.00;31.90
37868;DHT22;24011;48.880;9.190;2022-12-29T08:40:50;24.00;31.80
37868;DHT22;24011;48.880;9.190;2022-12-29T08:43:39;24.00;31.90
37868;DHT22;24011;48.880;9.190;2022-12-29T08:46:43;24.00;31.80
37868;DHT22;24011;48.880;9.190;2022-12-29T08:49:39;24.00;31.80
37868;DHT22;24011;48.880;9.190;2022-12-29T08:52:33;24.00;31.80
37868;DHT22;24011;48.880;9.190;2022-12-29T08:55:31;24.00;31.70
37868;DHT22;24011;48.880;9.190;2022-12-29T08:58:27;24.00;31.70
37868;DHT22;24011;48.880;9.190;2022-12-29T09:01:27;24.00;31.60
37868;DHT22;24011;48.880;9.190;2022-12-29T09:04:38;24.10;31.70
37868;DHT22;24011;48.880;9.190;2022-12-29T09:07:44;24.10;31.60
37868;DHT22;24011;48.880;9.190;2022-12-29T09:10:44;24.10;31.60
37868;DHT22;24011;48.880;9.190;2022-12-29T09:14:09;24.10;31.60
37868;DHT22;24011;48.880;9.190;2022-12-29T09:17:28;24.10;31.60
37868;DHT22;24011;48.880;9.190;2022-12-29T09:20:43;24.10;31.50
37868;DHT22;24011;48.880;9.190;2022-12-29T09:23:58;24.10;31.50
37868;DHT22;24011;48.880;9.190;2022-12-29T09:26:50;24.10;31.50
37868;DHT22;24011;48.880;9.190;2022-12-29T09:29:43;24.10;31.40
37868;DHT22;24011;48.880;9.190;2022-12-29T09:33:01;24.10;31.50
37868;DHT22;24011;48.880;9.190;2022-12-29T09:36:16;24.10;31.50
37868;DHT22;24011;48.880;9.190;2022-12-29T09:39:04;24.10;31.40
37868;DHT22;24011;48.880;9.190;2022-12-29T09:42:22;24.10;31.30
37868;DHT22;24011;48.880;9.190;2022-12-29T09:45:44;24.10;31.30
37868;DHT22;24011;48.880;9.190;2022-12-29T09:49:21;24.10;31.30
37868;DHT22;24011;48.880;9.190;2022-12-29T09:52:34;24.10;31.30
37868;DHT22;24011;48.880;9.190;2022-12-29T09:56:02;24.20;31.30
37868;DHT22;24011;48.880;9.190;2022-12-29T09:59:34;24.20;31.40
37868;DHT22;24011;48.880;9.190;2022-12-29T10:02:56;24.20;31.30
37868;DHT22;24011;48.880;9.190;2022-12-29T10:06:10;24.20;31.30
37868;DHT22;24011;48.880;9.190;2022-12-29T10:09:57;24.10;31.30
37868;DHT22;24011;48.880;9.190;2022-12-29T10:13:33;24.10;31.30
37868;DHT22;24011;48.880;9.190;2022-12-29T10:16:57;24.20;31.30
37868;DHT22;24011;48.880;9.190;2022-12-29T10:20:41;24.20;31.40
37868;DHT22;24011;48.880;9.190;2022-12-29T10:23:58;24.10;31.30
37868;DHT22;24011;48.880;9.190;2022-12-29T10:27:28;24.20;31.40
37868;DHT22;24011;48.880;9.190;2022-12-29T10:30:34;24.10;31.30
37868;DHT22;24011;48.880;9.190;2022-12-29T10:34:03;24.20;31.40
37868;DHT22;24011;48.880;9.190;2022-12-29T10:37:09;24.10;31.30
37868;DHT22;24011;48.880;9.190;2022-12-29T10:41:05;24.10;31.30
37868;DHT22;24011;48.880;9.190;2022-12-29T10:45:04;24.20;31.30
37868;DHT22;24011;48.880;9.190;2022-12-29T10:49:04;24.20;31.40
37868;DHT22;24011;48.880;9.190;2022-12-29T10:51:56;24.20;31.30
37868;DHT22;24011;48.880;9.190;2022-12-29T10:55:51;24.20;31.40
37868;DHT22;24011;48.880;9.190;2022-12-29T10:59:41;24.20;31.40
37868;DHT22;24011;48.880;9.190;2022-12-29T11:04:00;24.20;31.50
37868;DHT22;24011;48.880;9.190;2022-12-29T11:07:21;24.30;31.60
37868;DHT22;24011;48.880;9.190;2022-12-29T11:10:36;24.30;32.20
37868;DHT22;24011;48.880;9.190;2022-12-29T11:14:11;24.30;31.50
37868;DHT22;24011;48.880;9.190;2022-12-29T11:17:47;24.30;31.50
37868;DHT22;24011;48.880;9.190;2022-12-29T11:21:35;24.30;31.60
37868;DHT22;24011;48.880;9.190;2022-12-29T11:24:22;24.30;31.50
37868;DHT22;24011;48.880;9.190;2022-12-29T11:27:41;24.40;31.60
37868;DHT22;24011;48.880;9.190;2022-12-29T11:31:15;24.40;31.60
37868;DHT22;24011;48.880;9.190;2022-12-29T11:34:47;24.30;31.60
37868;DHT22;24011;48.880;9.190;2022-12-29T11:38:18;24.40;31.60
37868;DHT22;24011;48.880;9.190;2022-12-29T11:41:32;24.40;31.60
37868;DHT22;24011;48.880;9.190;2022-12-29T11:44:35;24.40;31.70
37868;DHT22;24011;48.880;9.190;2022-12-29T11:47:34;24.30;31.60
37868;DHT22;24011;48.880;9.190;2022-12-29T11:50:57;24.30;31.70
37868;DHT22;24011;48.880;9.190;2022-12-29T11:54:23;24.40;31.70
37868;DHT22;24011;48.880;9.190;2022-12-29T11:57:53;24.30;31.70
37868;DHT22;24011;48.880;9.190;2022-12-29T12:00:59;24.40;31.70
37868;DHT22;24011;48.880;9.190;2022-12-29T12:04:19;24.30;31.60
37868;DHT22;24011;48.880;9.190;2022-12-29T12:08:07;24.30;31.60
37868;DHT22;24011;48.880;9.190;2022-12-29T12:11:35;24.30;31.50
37868;DHT22;24011;48.880;9.190;2022-12-29T12:14:36;24.30;31.60
37868;DHT22;24011;48.880;9.190;2022-12-29T12:18:30;24.30;31.60
37868;DHT22;24011;48.880;9.190;2022-12-29T12:22:17;24.30;31.60
37868;DHT22;24011;48.880;9.190;2022-12-29T12:25:39;24.30;31.60
37868;DHT22;24011;48.880;9.190;2022-12-29T12:29:12;24.30;31.60
37868;DHT22;24011;48.880;9.190;2022-12-29T12:33:00;24.40;31.70
37868;DHT22;24011;48.880;9.190;2022-12-29T12:44:33;24.40;31.70
37868;DHT22;24011;48.880;9.190;2022-12-29T12:52:07;24.40;31.70
37868;DHT22;24011;48.880;9.190;2022-12-29T12:55:43;24.40;31.80
37868;DHT22;24011;48.880;9.190;2022-12-29T12:59:30;24.40;31.80
37868;DHT22;24011;48.880;9.190;2022-12-29T13:03:08;24.40;31.80
37868;DHT22;24011;48.880;9.190;2022-12-29T13:06:49;24.40;31.80
37868;DHT22;24011;48.880;9.190;2022-12-29T13:10:12;24.40;31.80
37868;DHT22;24011;48.880;9.190;2022-12-29T13:13:53;24.40;31.90
37868;DHT22;24011;48.880;9.190;2022-12-29T13:16:49;24.40;31.90
37868;DHT22;24011;48.880;9.190;2022-12-29T13:20:25;24.40;31.90
37868;DHT22;24011;48.880;9.190;2022-12-29T13:23:49;24.40;32.00
37868;DHT22;24011;48.880;9.190;2022-12-29T13:30:56;24.40;32.20
37868;DHT22;24011;48.880;9.190;2022-12-29T13:34:21;24.40;32.10
37868;DHT22;24011;48.880;9.190;2022-12-29T13:37:31;24.40;32.20
37868;DHT22;24011;48.880;9.190;2022-12-29T13:40:43;24.40;32.20
37868;DHT22;24011;48.880;9.190;2022-12-29T13:43:57;24.40;32.20
37868;DHT22;24011;48.880;9.190;2022-12-29T13:46:58;24.40;32.30
37868;DHT22;24011;48.880;9.190;2022-12-29T13:49:47;24.40;32.30
37868;DHT22;24011;48.880;9.190;2022-12-29T13:53:11;24.40;32.50
37868;DHT22;24011;48.880;9.190;2022-12-29T13:56:31;24.40;32.40
37868;DHT22;24011;48.880;9.190;2022-12-29T13:59:26;24.40;32.40
37868;DHT22;24011;48.880;9.190;2022-12-29T14:06:26;24.40;32.50
37868;DHT22;24011;48.880;9.190;2022-12-29T14:09:38;24.40;32.50
37868;DHT22;24011;48.880;9.190;2022-12-29T14:13:13;24.40;32.50
37868;DHT22;24011;48.880;9.190;2022-12-29T14:16:25;24.40;32.40
37868;DHT22;24011;48.880;9.190;2022-12-29T14:20:25;24.40;32.40
37868;DHT22;24011;48.880;9.190;2022-12-29T14:23:41;24.40;32.40
37868;DHT22;24011;48.880;9.190;2022-12-29T14:27:01;24.40;32.40
37868;DHT22;24011;48.880;9.190;2022-12-29T14:34:43;24.40;32.50
37868;DHT22;24011;48.880;9.190;2022-12-29T14:38:19;24.40;32.50
37868;DHT22;24011;48.880;9.190;2022-12-29T14:41:37;24.40;32.40
37868;DHT22;24011;48.880;9.190;2022-12-29T14:45:01;24.50;32.50
37868;DHT22;24011;48.880;9.190;2022-12-29T14:48:52;24.40;32.50
37868;DHT22;24011;48.880;9.190;2022-12-29T14:52:13;24.40;32.50
37868;DHT22;24011;48.880;9.190;2022-12-29T14:55:38;24.50;32.50
37868;DHT22;24011;48.880;9.190;2022-12-29T14:58:18;24.40;32.50
37868;DHT22;24011;48.880;9.190;2022-12-29T15:01:13;24.40;32.60
37868;DHT22;24011;48.880;9.190;2022-12-29T15:04:31;24.40;32.70
37868;DHT22;24011;48.880;9.190;2022-12-29T15:07:30;24.40;32.70
37868;DHT22;24011;48.880;9.190;2022-12-29T15:10:25;24.40;32.80
37868;DHT22;24011;48.880;9.190;2022-12-29T15:13:49;24.30;32.90
37868;DHT22;24011;48.880;9.190;2022-12-29T15:17:25;24.30;32.90
37868;DHT22;24011;48.880;9.190;2022-12-29T15:20:20;24.40;33.00
37868;DHT22;24011;48.880;9.190;2022-12-29T15:23:55;24.30;33.00
37868;DHT22;24011;48.880;9.190;2022-12-29T15:27:16;24.40;32.90
37868;DHT22;24011;48.880;9.190;2022-12-29T15:30:26;24.40;32.90
37868;DHT22;24011;48.880;9.190;2022-12-29T15:33:31;24.40;32.90
37868;DHT22;24011;48.880;9.190;2022-12-29T15:36:55;24.30;33.00
37868;DHT22;24011;48.880;9.190;2022-12-29T15:40:31;24.30;32.90
37868;DHT22;24011;48.880;9.190;2022-12-29T15:44:09;24.30;33.00
37868;DHT22;24011;48.880;9.190;2022-12-29T15:47:43;24.40;33.10
37868;DHT22;24011;48.880;9.190;2022-12-29T15:50:53;24.30;33.00
37868;DHT22;24011;48.880;9.190;2022-12-29T15:53:45;24.30;33.10
37868;DHT22;24011;48.880;9.190;2022-12-29T15:57:09;24.30;33.20
37868;DHT22;24011;48.880;9.190;2022-12-29T15:59:50;24.30;33.30
37868;DHT22;24011;48.880;9.190;2022-12-29T16:03:33;24.30;33.30
37868;DHT22;24011;48.880;9.190;2022-12-29T16:06:56;24.30;33.30
37868;DHT22;24011;48.880;9.190;2022-12-29T16:10:25;24.30;33.30
37868;DHT22;24011;48.880;9.190;2022-12-29T16:13:43;24.40;33.40
37868;DHT22;24011;48.880;9.190;2022-12-29T16:17:14;24.30;33.30
37868;DHT22;24011;48.880;9.190;2022-12-29T16:20:40;24.30;33.40
37868;DHT22;24011;48.880;9.190;2022-12-29T16:23:50;24.30;33.50
37868;DHT22;24011;48.880;9.190;2022-12-29T16:26:57;24.30;33.40
37868;DHT22;24011;48.880;9.190;2022-12-29T16:29:57;24.30;33.50
37868;DHT22;24011;48.880;9.190;2022-12-29T16:32:56;24.30;33.60
37868;DHT22;24011;48.880;9.190;2022-12-29T16:35:51;24.30;33.60
37868;DHT22;24011;48.880;9.190;2022-12-29T16:38:50;24.30;33.60
37868;DHT22;24011;48.880;9.190;2022-12-29T16:41:56;24.20;33.60
37868;DHT22;24011;48.880;9.190;2022-12-29T16:46:06;24.30;33.60
37868;DHT22;24011;48.880;9.190;2022-12-29T16:49:15;24.30;33.60
37868;DHT22;24011;48.880;9.190;2022-12-29T16:52:28;24.30;33.70
37868;DHT22;24011;48.880;9.190;2022-12-29T16:55:39;24.20;33.70
37868;DHT22;24011;48.880;9.190;2022-12-29T16:58:48;24.20;33.70
37868;DHT22;24011;48.880;9.190;2022-12-29T17:01:56;24.30;33.70
37868;DHT22;24011;48.880;9.190;2022-12-29T17:05:02;24.20;33.70
37868;DHT22;24011;48.880;9.190;2022-12-29T17:08:21;24.20;33.70
37868;DHT22;24011;48.880;9.190;2022-12-29T17:11:27;24.20;33.80
37868;DHT22;24011;48.880;9.190;2022-12-29T17:14:57;24.20;33.90
37868;DHT22;24011;48.880;9.190;2022-12-29T17:17:51;24.20;34.00
37868;DHT22;24011;48.880;9.190;2022-12-29T17:20:50;24.20;33.90
37868;DHT22;24011;48.880;9.190;2022-12-29T17:23:44;24.20;33.80
37868;DHT22;24011;48.880;9.190;2022-12-29T17:26:33;24.20;33.90
37868;DHT22;24011;48.880;9.190;2022-12-29T17:29:45;24.20;33.90
37868;DHT22;24011;48.880;9.190;2022-12-29T17:32:52;24.20;33.90
37868;DHT22;24011;48.880;9.190;2022-12-29T17:35:56;24.10;33.90
37868;DHT22;24011;48.880;9.190;2022-12-29T17:39:32;24.20;34.00
37868;DHT22;24011;48.880;9.190;2022-12-29T17:42:57;24.20;33.90
37868;DHT22;24011;48.880;9.190;2022-12-29T17:46:38;24.10;34.00
37868;DHT22;24011;48.880;9.190;2022-12-29T17:50:14;24.10;34.00
37868;DHT22;24011;48.880;9.190;2022-12-29T17:54:20;24.20;34.00
37868;DHT22;24011;48.880;9.190;2022-12-29T17:57:26;24.20;34.00
37868;DHT22;24011;48.880;9.190;2022-12-29T18:01:08;24.20;34.10
37868;DHT22;24011;48.880;9.190;2022-12-29T18:04:44;24.20;34.00
37868;DHT22;24011;48.880;9.190;2022-12-29T18:07:51;24.20;34.00
37868;DHT22;24011;48.880;9.190;2022-12-29T18:11:02;24.10;34.00
37868;DHT22;24011;48.880;9.190;2022-12-29T18:14:20;24.20;34.00
37868;DHT22;24011;48.880;9.190;2022-12-29T18:17:20;24.20;34.10
37868;DHT22;24011;48.880;9.190;2022-12-29T18:20:27;24.20;34.10
37868;DHT22;24011;48.880;9.190;2022-12-29T18:23:33;24.20;34.00
37868;DHT22;24011;48.880;9.190;2022-12-29T18:26:39;24.20;34.10
37868;DHT22;24011;48.880;9.190;2022-12-29T18:29:57;24.20;34.00
37868;DHT22;24011;48.880;9.190;2022-12-29T18:33:15;24.10;34.00
37868;DHT22;24011;48.880;9.190;2022-12-29T18:36:21;24.10;34.00
37868;DHT22;24011;48.880;9.190;2022-12-29T18:39:26;24.10;34.00
37868;DHT22;24011;48.880;9.190;2022-12-29T18:42:20;24.10;34.00
37868;DHT22;24011;48.880;9.190;2022-12-29T18:45:33;24.10;34.10
37868;DHT22;24011;48.880;9.190;2022-12-29T18:48:39;24.10;34.00
37868;DHT22;24011;48.880;9.190;2022-12-29T18:52:23;24.10;33.90
37868;DHT22;24011;48.880;9.190;2022-12-29T18:55:57;24.20;33.90
37868;DHT22;24011;48.880;9.190;2022-12-29T18:59:21;24.10;33.90
37868;DHT22;24011;48.880;9.190;2022-12-29T19:02:39;24.10;33.90
37868;DHT22;24011;48.880;9.190;2022-12-29T19:06:03;24.10;33.90
37868;DHT22;24011;48.880;9.190;2022-12-29T19:09:27;24.10;33.80
37868;DHT22;24011;48.880;9.190;2022-12-29T19:12:59;24.20;33.90
37868;DHT22;24011;48.880;9.190;2022-12-29T19:16:25;24.20;33.90
37868;DHT22;24011;48.880;9.190;2022-12-29T19:19:53;24.20;33.80
37868;DHT22;24011;48.880;9.190;2022-12-29T19:23:00;24.20;33.80
37868;DHT22;24011;48.880;9.190;2022-12-29T19:26:05;24.20;33.80
37868;DHT22;24011;48.880;9.190;2022-12-29T19:29:17;24.20;33.70
37868;DHT22;24011;48.880;9.190;2022-12-29T19:32:21;24.20;33.80
37868;DHT22;24011;48.880;9.190;2022-12-29T19:35:23;24.20;33.80
37868;DHT22;24011;48.880;9.190;2022-12-29T19:38:26;24.20;33.80
37868;DHT22;24011;48.880;9.190;2022-12-29T19:41:29;24.20;33.80
37868;DHT22;24011;48.880;9.190;2022-12-29T19:44:41;24.30;33.80
37868;DHT22;24011;48.880;9.190;2022-12-29T19:47:45;24.20;33.80
37868;DHT22;24011;48.880;9.190;2022-12-29T19:50:54;24.20;33.80
37868;DHT22;24011;48.880;9.190;2022-12-29T19:54:03;24.20;33.80
37868;DHT22;24011;48.880;9.190;2022-12-29T19:57:06;24.30;33.70
37868;DHT22;24011;48.880;9.190;2022-12-29T20:00:11;24.30;33.80
37868;DHT22;24011;48.880;9.190;2022-12-29T20:03:15;24.30;33.80
37868;DHT22;24011;48.880;9.190;2022-12-29T20:06:24;24.20;33.80
37868;DHT22;24011;48.880;9.190;2022-12-29T20:09:24;24.20;33.80
37868;DHT22;24011;48.880;9.190;2022-12-29T20:12:30;24.20;33.90
37868;DHT22;24011;48.880;9.190;2022-12-29T20:15:36;24.20;33.90
37868;DHT22;24011;48.880;9.190;2022-12-29T20:19:06;24.20;33.90
37868;DHT22;24011;48.880;9.190;2022-12-29T20:22:24;24.30;33.90
37868;DHT22;24011;48.880;9.190;2022-12-29T20:25:59;24.30;33.90
37868;DHT22;24011;48.880;9.190;2022-12-29T20:29:18;24.30;34.50
37868;DHT22;24011;48.880;9.190;2022-12-29T20:32:59;24.20;33.80
37868;DHT22;24011;48.880;9.190;2022-12-29T20:36:28;24.30;33.90
37868;DHT22;24011;48.880;9.190;2022-12-29T20:39:54;24.20;33.90
37868;DHT22;24011;48.880;9.190;2022-12-29T20:43:18;24.30;33.90
37868;DHT22;24011;48.880;9.190;2022-12-29T20:46:19;24.30;33.90
37868;DHT22;24011;48.880;9.190;2022-12-29T20:49:36;24.30;33.90
37868;DHT22;24011;48.880;9.190;2022-12-29T20:53:11;24.30;33.90
37868;DHT22;24011;48.880;9.190;2022-12-29T20:56:28;24.30;33.90
37868;DHT22;24011;48.880;9.190;2022-12-29T20:59:54;24.30;33.90
37868;DHT22;24011;48.880;9.190;2022-12-29T21:03:12;24.30;33.90
37868;DHT22;24011;48.880;9.190;2022-12-29T21:06:47;24.30;33.90
37868;DHT22;24011;48.880;9.190;2022-12-29T21:10:06;24.30;34.00
37868;DHT22;24011;48.880;9.190;2022-12-29T21:13:29;24.20;33.90
37868;DHT22;24011;48.880;9.190;2022-12-29T21:16:53;24.30;34.00
37868;DHT22;24011;48.880;9.190;2022-12-29T21:20:17;24.20;34.00
37868;DHT22;24011;48.880;9.190;2022-12-29T21:23:53;24.30;34.00
37868;DHT22;24011;48.880;9.190;2022-12-29T21:27:17;24.30;33.90
37868;DHT22;24011;48.880;9.190;2022-12-29T21:30:35;24.30;33.90
37868;DHT22;24011;48.880;9.190;2022-12-29T21:34:06;24.20;34.00